sensor_id;sensor_type;location;lat;lon;timestamp;pressure;altitude;pressure_sealevel;temperature;humidity
44385;BME280;30101;32.778;34.994;2023-01-06T00:04:07;98223.69;;;13.55;63.62
44385;BME280;30101;32.778;34.994;2023-01-06T00:09:10;98223.09;;;13.53;63.65
44385;BME280;30101;32.778;34.994;2023-01-06T00:14:13;98218.16;;;13.50;63.79
44385;BME280;30101;32.778;34.994;2023-01-06T00:19:16;98210.72;;;13.52;63.72
44385;BME280;30101;32.778;34.994;2023-01-06T00:24:20;98211.91;;;13.56;63.65
44385;BME280;30101;32.778;34.994;2023-01-06T00:29:23;98210.44;;;13.60;63.82
44385;BME280;30101;32.778;34.994;2023-01-06T00:34:27;98213.31;;;13.65;63.55
44385;BME280;30101;32.778;34.994;2023-01-06T00:39:30;98224.13;;;13.52;63.67
44385;BME280;30101;32.778;34.994;2023-01-06T00:44:35;98219.28;;;13.36;64.04
44385;BME280;30101;32.778;34.994;2023-01-06T00:49:39;98227.16;;;13.31;64.14
44385;BME280;30101;32.778;34.994;2023-01-06T00:54:42;98224.91;;;13.28;64.41
44385;BME280;30101;32.778;34.994;2023-01-06T00:59:45;98217.34;;;13.11;64.71
44385;BME280;30101;32.778;34.994;2023-01-06T01:04:48;98208.94;;;13.01;64.87
44385;BME280;30101;32.778;34.994;2023-01-06T01:09:51;98208.34;;;12.92;64.97
44385;BME280;30101;32.778;34.994;2023-01-06T01:14:55;98210.00;;;12.93;65.01
44385;BME280;30101;32.778;34.994;2023-01-06T01:19:58;98209.38;;;12.98;64.82
44385;BME280;30101;32.778;34.994;2023-01-06T01:25:03;98213.72;;;12.92;64.99
44385;BME280;30101;32.778;34.994;2023-01-06T01:30:06;98222.88;;;12.72;65.54
44385;BME280;30101;32.778;34.994;2023-01-06T01:35:09;98213.25;;;12.51;66.06
44385;BME280;30101;32.778;34.994;2023-01-06T01:40:13;98203.84;;;12.35;66.00
44385;BME280;30101;32.778;34.994;2023-01-06T01:45:26;98197.72;;;12.21;66.78
44385;BME280;30101;32.778;34.994;2023-01-06T01:50:36;98191.75;;;12.06;66.87
44385;BME280;30101;32.778;34.994;2023-01-06T01:55:42;98185.19;;;11.95;67.04
44385;BME280;30101;32.778;34.994;2023-01-06T02:00:45;98178.84;;;11.83;67.81
44385;BME280;30101;32.778;34.994;2023-01-06T02:05:52;98174.69;;;11.74;67.81
44385;BME280;30101;32.778;34.994;2023-01-06T02:10:57;98178.81;;;11.70;67.87
44385;BME280;30101;32.778;34.994;2023-01-06T02:21:33;98172.66;;;11.69;67.99
44385;BME280;30101;32.778;34.994;2023-01-06T02:27:02;98165.63;;;11.68;67.66
44385;BME280;30101;32.778;34.994;2023-01-06T02:32:22;98173.47;;;11.70;67.28
44385;BME280;30101;32.778;34.994;2023-01-06T02:47:58;98180.25;;;11.72;67.94
44385;BME280;30101;32.778;34.994;2023-01-06T02:53:08;98182.09;;;11.72;68.03
44385;BME280;30101;32.778;34.994;2023-01-06T03:03:52;98198.38;;;11.83;67.43
44385;BME280;30101;32.778;34.994;2023-01-06T03:08:59;98218.53;;;11.93;67.33
44385;BME280;30101;32.778;34.994;2023-01-06T03:19:13;98224.06;;;11.78;67.51
44385;BME280;30101;32.778;34.994;2023-01-06T03:24:19;98212.13;;;11.74;67.88
44385;BME280;30101;32.778;34.994;2023-01-06T03:29:23;98220.97;;;11.74;68.40
44385;BME280;30101;32.778;34.994;2023-01-06T03:44:50;98209.44;;;11.74;68.13
44385;BME280;30101;32.778;34.994;2023-01-06T03:50:01;98212.13;;;11.74;68.08
44385;BME280;30101;32.778;34.994;2023-01-06T03:55:10;98215.22;;;11.71;67.93
44385;BME280;30101;32.778;34.994;2023-01-06T04:00:26;98215.44;;;11.69;68.11
44385;BME280;30101;32.778;34.994;2023-01-06T04:05:35;98223.03;;;11.72;68.15
44385;BME280;30101;32.778;34.994;2023-01-06T04:10:39;98219.31;;;11.80;68.31
44385;BME280;30101;32.778;34.994;2023-01-06T04:15:42;98221.00;;;11.81;68.16
44385;BME280;30101;32.778;34.994;2023-01-06T04:20:46;98220.78;;;11.76;68.22
44385;BME280;30101;32.778;34.994;2023-01-06T04:26:02;98224.69;;;11.73;68.24
44385;BME280;30101;32.778;34.994;2023-01-06T04:31:14;98227.56;;;11.72;68.69
44385;BME280;30101;32.778;34.994;2023-01-06T04:36:17;98226.75;;;11.71;68.64
44385;BME280;30101;32.778;34.994;2023-01-06T04:41:24;98241.97;;;11.71;68.19
44385;BME280;30101;32.778;34.994;2023-01-06T04:46:27;98246.50;;;11.70;68.48
44385;BME280;30101;32.778;34.994;2023-01-06T04:51:31;98249.19;;;11.70;68.67
44385;BME280;30101;32.778;34.994;2023-01-06T04:56:34;98257.00;;;11.72;68.22
44385;BME280;30101;32.778;34.994;2023-01-06T05:01:37;98258.63;;;11.73;68.08
44385;BME280;30101;32.778;34.994;2023-01-06T05:06:40;98249.19;;;11.77;68.19
44385;BME280;30101;32.778;34.994;2023-01-06T05:11:43;98253.09;;;11.81;68.08
44385;BME280;30101;32.778;34.994;2023-01-06T05:16:48;98260.31;;;11.87;68.50
44385;BME280;30101;32.778;34.994;2023-01-06T05:21:51;98270.00;;;11.95;68.06
44385;BME280;30101;32.778;34.994;2023-01-06T05:26:54;98277.81;;;12.03;68.23
44385;BME280;30101;32.778;34.994;2023-01-06T05:31:58;98278.41;;;12.11;68.63
44385;BME280;30101;32.778;34.994;2023-01-06T05:37:01;98288.50;;;12.23;68.34
44385;BME280;30101;32.778;34.994;2023-01-06T05:42:04;98287.88;;;12.34;68.46
44385;BME280;30101;32.778;34.994;2023-01-06T05:47:07;98293.81;;;12.49;67.95
44385;BME280;30101;32.778;34.994;2023-01-06T05:52:10;98301.44;;;12.59;68.20
44385;BME280;30101;32.778;34.994;2023-01-06T05:57:13;98299.94;;;12.69;68.00
44385;BME280;30101;32.778;34.994;2023-01-06T06:02:17;98299.53;;;12.79;67.64
44385;BME280;30101;32.778;34.994;2023-01-06T06:07:20;98304.25;;;12.90;68.12
44385;BME280;30101;32.778;34.994;2023-01-06T06:12:24;98300.84;;;13.15;67.26
44385;BME280;30101;32.778;34.994;2023-01-06T06:17:27;98296.69;;;13.26;67.24
44385;BME280;30101;32.778;34.994;2023-01-06T06:22:30;98308.03;;;13.28;67.14
44385;BME280;30101;32.778;34.994;2023-01-06T06:27:33;98303.50;;;13.28;67.32
44385;BME280;30101;32.778;34.994;2023-01-06T06:32:36;98303.50;;;13.28;67.55
44385;BME280;30101;32.778;34.994;2023-01-06T06:37:41;98312.97;;;13.31;67.40
44385;BME280;30101;32.778;34.994;2023-01-06T06:42:49;98314.41;;;13.33;67.52
44385;BME280;30101;32.778;34.994;2023-01-06T06:47:55;98325.13;;;13.40;67.49
44385;BME280;30101;32.778;34.994;2023-01-06T06:52:58;98321.56;;;13.46;67.43
44385;BME280;30101;32.778;34.994;2023-01-06T06:58:01;98334.72;;;13.54;67.92
44385;BME280;30101;32.778;34.994;2023-01-06T07:03:04;98348.69;;;13.63;67.31
44385;BME280;30101;32.778;34.994;2023-01-06T07:08:07;98353.84;;;13.71;67.57
44385;BME280;30101;32.778;34.994;2023-01-06T07:13:10;98363.28;;;13.80;67.46
44385;BME280;30101;32.778;34.994;2023-01-06T07:18:14;98370.03;;;13.89;67.36
44385;BME280;30101;32.778;34.994;2023-01-06T07:23:17;98371.63;;;13.97;67.50
44385;BME280;30101;32.778;34.994;2023-01-06T07:28:20;98364.97;;;14.06;67.37
44385;BME280;30101;32.778;34.994;2023-01-06T07:33:23;98358.06;;;14.17;67.39
44385;BME280;30101;32.778;34.994;2023-01-06T07:38:27;98365.63;;;14.26;67.21
44385;BME280;30101;32.778;34.994;2023-01-06T07:43:30;98362.47;;;14.36;67.43
44385;BME280;30101;32.778;34.994;2023-01-06T07:48:36;98354.13;;;14.44;67.19
44385;BME280;30101;32.778;34.994;2023-01-06T07:53:39;98347.69;;;14.52;67.40
44385;BME280;30101;32.778;34.994;2023-01-06T07:58:42;98345.09;;;14.64;67.49
44385;BME280;30101;32.778;34.994;2023-01-06T08:03:46;98337.19;;;14.69;67.19
44385;BME280;30101;32.778;34.994;2023-01-06T08:08:49;98339.38;;;14.78;67.15
44385;BME280;30101;32.778;34.994;2023-01-06T08:13:54;98328.09;;;14.88;67.27
44385;BME280;30101;32.778;34.994;2023-01-06T08:18:58;98324.44;;;15.01;67.00
44385;BME280;30101;32.778;34.994;2023-01-06T08:24:01;98322.03;;;15.11;67.19
44385;BME280;30101;32.778;34.994;2023-01-06T08:29:04;98308.53;;;15.18;66.79
44385;BME280;30101;32.778;34.994;2023-01-06T08:34:07;98305.66;;;15.31;66.54
44385;BME280;30101;32.778;34.994;2023-01-06T08:39:11;98315.06;;;15.40;66.67
44385;BME280;30101;32.778;34.994;2023-01-06T08:44:15;98317.59;;;15.53;66.82
44385;BME280;30101;32.778;34.994;2023-01-06T08:49:19;98316.72;;;15.71;66.14
44385;BME280;30101;32.778;34.994;2023-01-06T08:54:22;98315.34;;;15.80;66.04
44385;BME280;30101;32.778;34.994;2023-01-06T08:59:25;98311.84;;;15.80;66.46
44385;BME280;30101;32.778;34.994;2023-01-06T09:04:28;98306.81;;;15.83;66.40
44385;BME280;30101;32.778;34.994;2023-01-06T09:09:33;98294.91;;;15.91;66.13
44385;BME280;30101;32.778;34.994;2023-01-06T09:14:37;98285.66;;;15.99;66.23
44385;BME280;30101;32.778;34.994;2023-01-06T09:19:40;98281.00;;;16.06;66.04
44385;BME280;30101;32.778;34.994;2023-01-06T09:24:43;98275.97;;;16.09;65.71
44385;BME280;30101;32.778;34.994;2023-01-06T09:29:46;98265.78;;;16.11;65.99
44385;BME280;30101;32.778;34.994;2023-01-06T09:34:50;98260.28;;;16.18;65.95
44385;BME280;30101;32.778;34.994;2023-01-06T09:39:52;98250.44;;;16.24;65.77
44385;BME280;30101;32.778;34.994;2023-01-06T09:44:57;98241.28;;;16.25;66.01
44385;BME280;30101;32.778;34.994;2023-01-06T09:55:11;98231.44;;;16.30;65.94
44385;BME280;30101;32.778;34.994;2023-01-06T10:00:19;98228.63;;;16.37;65.91
44385;BME280;30101;32.778;34.994;2023-01-06T10:05:26;98225.00;;;16.43;65.69
44385;BME280;30101;32.778;34.994;2023-01-06T10:10:53;98221.81;;;16.46;65.73
44385;BME280;30101;32.778;34.994;2023-01-06T10:26:31;98202.50;;;17.01;64.58
44385;BME280;30101;32.778;34.994;2023-01-06T10:31:38;98194.22;;;17.19;64.32
44385;BME280;30101;32.778;34.994;2023-01-06T10:36:44;98194.06;;;17.26;64.46
44385;BME280;30101;32.778;34.994;2023-01-06T10:46:54;98175.56;;;17.18;64.50
44385;BME280;30101;32.778;34.994;2023-01-06T10:51:58;98168.81;;;17.32;64.36
44385;BME280;30101;32.778;34.994;2023-01-06T10:57:05;98168.00;;;17.48;64.29
44385;BME280;30101;32.778;34.994;2023-01-06T11:02:23;98164.25;;;17.66;63.88
44385;BME280;30101;32.778;34.994;2023-01-06T11:07:27;98158.88;;;17.66;63.90
44385;BME280;30101;32.778;34.994;2023-01-06T11:12:30;98161.31;;;17.68;63.83
44385;BME280;30101;32.778;34.994;2023-01-06T11:17:34;98156.38;;;17.65;63.80
44385;BME280;30101;32.778;34.994;2023-01-06T11:22:40;98146.91;;;17.62;63.80
44385;BME280;30101;32.778;34.994;2023-01-06T11:27:43;98155.09;;;17.50;63.93
44385;BME280;30101;32.778;34.994;2023-01-06T11:32:46;98148.28;;;17.31;63.96
44385;BME280;30101;32.778;34.994;2023-01-06T11:37:49;98152.25;;;17.12;63.96
44385;BME280;30101;32.778;34.994;2023-01-06T11:42:59;98140.66;;;16.83;64.74
44385;BME280;30101;32.778;34.994;2023-01-06T11:48:06;98133.66;;;16.58;64.90
44385;BME280;30101;32.778;34.994;2023-01-06T11:53:14;98127.13;;;16.54;65.30
44385;BME280;30101;32.778;34.994;2023-01-06T11:58:19;98120.28;;;16.75;64.85
44385;BME280;30101;32.778;34.994;2023-01-06T12:03:29;98135.31;;;16.99;64.53
44385;BME280;30101;32.778;34.994;2023-01-06T12:08:42;98133.66;;;16.98;64.42
44385;BME280;30101;32.778;34.994;2023-01-06T12:13:49;98123.22;;;16.74;64.90
44385;BME280;30101;32.778;34.994;2023-01-06T12:19:13;98124.75;;;16.58;64.90
44385;BME280;30101;32.778;34.994;2023-01-06T12:24:19;98125.31;;;16.31;65.12
44385;BME280;30101;32.778;34.994;2023-01-06T12:29:23;98127.69;;;16.04;65.78
44385;BME280;30101;32.778;34.994;2023-01-06T12:34:37;98134.97;;;15.92;65.84
44385;BME280;30101;32.778;34.994;2023-01-06T12:49:58;98157.56;;;15.26;66.96
44385;BME280;30101;32.778;34.994;2023-01-06T12:55:04;98160.06;;;14.97;67.63
44385;BME280;30101;32.778;34.994;2023-01-06T13:15:56;98181.72;;;14.11;69.32
44385;BME280;30101;32.778;34.994;2023-01-06T13:21:07;98190.50;;;13.99;69.29
44385;BME280;30101;32.778;34.994;2023-01-06T13:42:06;98166.88;;;13.65;70.46
44385;BME280;30101;32.778;34.994;2023-01-06T13:47:11;98155.69;;;13.68;70.52
44385;BME280;30101;32.778;34.994;2023-01-06T13:52:17;98158.97;;;13.70;70.63
44385;BME280;30101;32.778;34.994;2023-01-06T14:07:40;98165.59;;;13.67;71.58
44385;BME280;30101;32.778;34.994;2023-01-06T14:12:50;98154.94;;;13.61;71.33
44385;BME280;30101;32.778;34.994;2023-01-06T14:17:54;98171.91;;;13.55;71.50
44385;BME280;30101;32.778;34.994;2023-01-06T14:22:59;98171.94;;;13.48;71.93
44385;BME280;30101;32.778;34.994;2023-01-06T14:28:05;98181.69;;;13.42;72.19
44385;BME280;30101;32.778;34.994;2023-01-06T14:33:32;98173.63;;;13.42;72.49
44385;BME280;30101;32.778;34.994;2023-01-06T14:38:51;98182.28;;;13.44;72.34
44385;BME280;30101;32.778;34.994;2023-01-06T14:44:04;98177.31;;;13.48;72.42
44385;BME280;30101;32.778;34.994;2023-01-06T14:49:32;98176.03;;;13.50;72.51
44385;BME280;30101;32.778;34.994;2023-01-06T14:54:35;98177.91;;;13.50;72.76
44385;BME280;30101;32.778;34.994;2023-01-06T14:59:39;98174.41;;;13.49;72.81
44385;BME280;30101;32.778;34.994;2023-01-06T15:04:42;98195.50;;;13.46;72.94
44385;BME280;30101;32.778;34.994;2023-01-06T15:09:46;98195.31;;;13.41;73.04
44385;BME280;30101;32.778;34.994;2023-01-06T15:14:49;98190.81;;;13.35;73.50
44385;BME280;30101;32.778;34.994;2023-01-06T15:19:59;98181.72;;;13.36;73.37
44385;BME280;30101;32.778;34.994;2023-01-06T15:25:05;98196.25;;;13.28;73.45
44385;BME280;30101;32.778;34.994;2023-01-06T15:30:13;98219.91;;;13.31;73.60
44385;BME280;30101;32.778;34.994;2023-01-06T15:35:21;98227.19;;;13.24;73.86
44385;BME280;30101;32.778;34.994;2023-01-06T15:40:27;98233.38;;;13.18;73.93
44385;BME280;30101;32.778;34.994;2023-01-06T15:45:32;98244.78;;;13.07;74.44
44385;BME280;30101;32.778;34.994;2023-01-06T15:50:36;98227.72;;;13.01;74.68
44385;BME280;30101;32.778;34.994;2023-01-06T15:55:39;98226.69;;;13.02;74.71
44385;BME280;30101;32.778;34.994;2023-01-06T16:00:50;98230.19;;;13.03;74.80
44385;BME280;30101;32.778;34.994;2023-01-06T16:06:12;98238.81;;;13.05;74.64
44385;BME280;30101;32.778;34.994;2023-01-06T16:16:22;98247.69;;;13.05;74.66
44385;BME280;30101;32.778;34.994;2023-01-06T16:21:28;98249.16;;;13.01;75.09
44385;BME280;30101;32.778;34.994;2023-01-06T16:26:33;98261.53;;;13.02;74.94
44385;BME280;30101;32.778;34.994;2023-01-06T16:31:42;98269.56;;;13.02;75.01
44385;BME280;30101;32.778;34.994;2023-01-06T16:36:45;98268.13;;;13.00;74.91
44385;BME280;30101;32.778;34.994;2023-01-06T16:47:04;98276.00;;;12.88;75.42
44385;BME280;30101;32.778;34.994;2023-01-06T16:52:10;98262.22;;;12.84;75.64
44385;BME280;30101;32.778;34.994;2023-01-06T16:57:13;98267.78;;;12.83;75.76
44385;BME280;30101;32.778;34.994;2023-01-06T17:02:16;98267.97;;;12.81;75.63
44385;BME280;30101;32.778;34.994;2023-01-06T17:07:20;98269.44;;;12.84;75.81
44385;BME280;30101;32.778;34.994;2023-01-06T17:12:27;98272.31;;;12.82;75.97
44385;BME280;30101;32.778;34.994;2023-01-06T17:17:31;98264.69;;;12.79;76.16
44385;BME280;30101;32.778;34.994;2023-01-06T17:22:36;98274.81;;;12.77;76.23
44385;BME280;30101;32.778;34.994;2023-01-06T17:27:42;98278.94;;;12.73;76.15
44385;BME280;30101;32.778;34.994;2023-01-06T17:32:46;98270.47;;;12.69;76.33
44385;BME280;30101;32.778;34.994;2023-01-06T17:37:49;98271.53;;;12.68;76.54
44385;BME280;30101;32.778;34.994;2023-01-06T17:42:58;98271.53;;;12.68;76.55
44385;BME280;30101;32.778;34.994;2023-01-06T17:48:02;98275.84;;;12.69;76.56
44385;BME280;30101;32.778;34.994;2023-01-06T17:53:12;98276.47;;;12.72;76.80
44385;BME280;30101;32.778;34.994;2023-01-06T17:58:16;98271.13;;;12.65;76.81
44385;BME280;30101;32.778;34.994;2023-01-06T18:03:23;98271.13;;;12.65;76.75
44385;BME280;30101;32.778;34.994;2023-01-06T18:08:29;98267.00;;;12.62;76.91
44385;BME280;30101;32.778;34.994;2023-01-06T18:13:33;98264.97;;;12.58;77.05
44385;BME280;30101;32.778;34.994;2023-01-06T18:18:38;98278.56;;;12.56;77.06
44385;BME280;30101;32.778;34.994;2023-01-06T18:23:42;98276.09;;;12.55;77.40
44385;BME280;30101;32.778;34.994;2023-01-06T18:28:47;98268.69;;;12.50;77.67
44385;BME280;30101;32.778;34.994;2023-01-06T18:33:50;98269.94;;;12.48;77.50
44385;BME280;30101;32.778;34.994;2023-01-06T18:38:53;98274.66;;;12.52;77.73
44385;BME280;30101;32.778;34.994;2023-01-06T18:43:57;98272.81;;;12.53;77.59
44385;BME280;30101;32.778;34.994;2023-01-06T18:49:00;98271.38;;;12.50;77.45
44385;BME280;30101;32.778;34.994;2023-01-06T18:54:08;98258.81;;;12.44;77.72
44385;BME280;30101;32.778;34.994;2023-01-06T18:59:16;98266.22;;;12.49;77.85
44385;BME280;30101;32.778;34.994;2023-01-06T19:04:27;98262.50;;;12.50;77.69
44385;BME280;30101;32.778;34.994;2023-01-06T19:09:33;98252.63;;;12.50;77.97
44385;BME280;30101;32.778;34.994;2023-01-06T19:14:40;98257.97;;;12.50;78.03
44385;BME280;30101;32.778;34.994;2023-01-06T19:19:43;98246.03;;;12.53;77.97
44385;BME280;30101;32.778;34.994;2023-01-06T19:35:25;98250.50;;;12.72;77.79
44385;BME280;30101;32.778;34.994;2023-01-06T19:40:30;98257.69;;;12.78;77.79
44385;BME280;30101;32.778;34.994;2023-01-06T19:45:34;98262.41;;;12.89;77.53
44385;BME280;30101;32.778;34.994;2023-01-06T19:50:38;98261.56;;;12.95;77.85
44385;BME280;30101;32.778;34.994;2023-01-06T19:55:41;98263.97;;;13.04;77.72
44385;BME280;30101;32.778;34.994;2023-01-06T20:00:45;98279.47;;;13.02;78.21
44385;BME280;30101;32.778;34.994;2023-01-06T20:05:49;98279.63;;;13.07;78.21
44385;BME280;30101;32.778;34.994;2023-01-06T20:10:52;98286.22;;;13.11;77.97
44385;BME280;30101;32.778;34.994;2023-01-06T20:15:56;98280.44;;;13.14;78.08
44385;BME280;30101;32.778;34.994;2023-01-06T20:20:59;98279.44;;;13.08;78.29
44385;BME280;30101;32.778;34.994;2023-01-06T20:26:02;98295.75;;;13.00;78.48
44385;BME280;30101;32.778;34.994;2023-01-06T20:31:08;98282.78;;;12.97;78.67
44385;BME280;30101;32.778;34.994;2023-01-06T20:36:12;98283.41;;;12.92;78.58
44385;BME280;30101;32.778;34.994;2023-01-06T20:41:15;98272.91;;;12.91;78.92
44385;BME280;30101;32.778;34.994;2023-01-06T20:46:19;98275.81;;;12.89;79.12
44385;BME280;30101;32.778;34.994;2023-01-06T20:51:22;98275.16;;;12.87;78.84
44385;BME280;30101;32.778;34.994;2023-01-06T20:56:26;98271.25;;;12.90;78.87
44385;BME280;30101;32.778;34.994;2023-01-06T21:01:29;98297.41;;;12.94;78.92
44385;BME280;30101;32.778;34.994;2023-01-06T21:06:32;98290.63;;;12.92;79.15
44385;BME280;30101;32.778;34.994;2023-01-06T21:11:35;98286.69;;;12.94;79.16
44385;BME280;30101;32.778;34.994;2023-01-06T21:16:38;98279.50;;;12.95;79.14
44385;BME280;30101;32.778;34.994;2023-01-06T21:21:41;98277.19;;;12.99;79.07
44385;BME280;30101;32.778;34.994;2023-01-06T21:26:45;98283.38;;;12.99;78.89
44385;BME280;30101;32.778;34.994;2023-01-06T21:31:48;98272.06;;;12.97;79.24
44385;BME280;30101;32.778;34.994;2023-01-06T21:36:52;98271.63;;;12.93;79.33
44385;BME280;30101;32.778;34.994;2023-01-06T21:41:58;98267.75;;;12.89;79.27
44385;BME280;30101;32.778;34.994;2023-01-06T21:47:01;98269.00;;;12.80;79.54
44385;BME280;30101;32.778;34.994;2023-01-06T21:52:04;98273.34;;;12.81;79.59
44385;BME280;30101;32.778;34.994;2023-01-06T21:57:08;98271.31;;;12.77;79.53
44385;BME280;30101;32.778;34.994;2023-01-06T22:02:12;98261.19;;;12.79;79.68
44385;BME280;30101;32.778;34.994;2023-01-06T22:07:16;98263.03;;;12.85;79.83
44385;BME280;30101;32.778;34.994;2023-01-06T22:12:19;98263.00;;;12.91;79.58
44385;BME280;30101;32.778;34.994;2023-01-06T22:17:22;98276.19;;;12.93;79.56
44385;BME280;30101;32.778;34.994;2023-01-06T22:22:27;98259.91;;;12.88;79.84
44385;BME280;30101;32.778;34.994;2023-01-06T22:27:31;98266.09;;;12.88;79.85
44385;BME280;30101;32.778;34.994;2023-01-06T22:32:44;98245.88;;;12.92;79.92
44385;BME280;30101;32.778;34.994;2023-01-06T22:37:47;98234.94;;;12.94;80.13
44385;BME280;30101;32.778;34.994;2023-01-06T22:42:50;98239.47;;;12.93;80.15
44385;BME280;30101;32.778;34.994;2023-01-06T22:47:53;98239.47;;;12.93;80.05
44385;BME280;30101;32.778;34.994;2023-01-06T22:52:56;98240.50;;;12.99;79.96
44385;BME280;30101;32.778;34.994;2023-01-06T22:58:00;98241.94;;;13.02;79.90
44385;BME280;30101;32.778;34.994;2023-01-06T23:03:03;98243.38;;;12.98;79.72
44385;BME280;30101;32.778;34.994;2023-01-06T23:08:06;98256.00;;;12.90;80.05
44385;BME280;30101;32.778;34.994;2023-01-06T23:13:09;98250.00;;;12.95;80.12
44385;BME280;30101;32.778;34.994;2023-01-06T23:18:13;98239.28;;;12.95;80.38
44385;BME280;30101;32.778;34.994;2023-01-06T23:23:16;98239.47;;;12.93;80.11
44385;BME280;30101;32.778;34.994;2023-01-06T23:28:19;98233.34;;;12.86;80.73
44385;BME280;30101;32.778;34.994;2023-01-06T23:33:22;98237.69;;;12.81;80.78
44385;BME280;30101;32.778;34.994;2023-01-06T23:38:25;98238.94;;;12.78;80.85
44385;BME280;30101;32.778;34.994;2023-01-06T23:43:29;98230.47;;;12.81;80.75
44385;BME280;30101;32.778;34.994;2023-01-06T23:48:32;98229.84;;;12.79;80.85
44385;BME280;30101;32.778;34.994;2023-01-06T23:53:36;98227.59;;;12.83;80.95
44385;BME280;30101;32.778;34.994;2023-01-06T23:58:41;98219.53;;;12.89;80.83
